This is the latest recevied weather packets stored in our database for station/object WB8SKP-WX. If no packets are shown the sender has not sent any weather packets the latest 1 day(s).
| Time | Temp. | Humidity | Pressure | Rain* | Wind** | Luminosity | Snow |
|---|---|---|---|---|---|---|---|
| 1778011795 | 20° C | 86% | 989.1 hPa | 0 mm | 0.89 m/s, 255° | - | - |
| 1778010595 | 19.44° C | 86% | 989.1 hPa | 0 mm | 2.24 m/s, 195° | - | - |
| 1778009365 | 19.44° C | 87% | 989 hPa | 0 mm | 1.34 m/s, 238° | - | - |
| 1778008135 | 18.89° C | 90% | 989.5 hPa | 0 mm | 1.34 m/s, 228° | - | - |
| 1778006935 | 19.44° C | 90% | 989.5 hPa | 0 mm | 0.89 m/s, 275° | - | - |
| 1778005735 | 18.33° C | 93% | 989.8 hPa | 0 mm | 0.89 m/s, 203° | - | - |
| 1778004535 | 18.33° C | 95% | 990.4 hPa | 0 mm | 0.89 m/s, 164° | - | - |
| 1778003335 | 17.78° C | 95% | 990.5 hPa | 0 mm | 0.89 m/s, 341° | - | - |
| 1778002105 | 16.67° C | 98% | 990.8 hPa | 0 mm | 0.89 m/s, 252° | - | - |
| 1778000905 | 16.11° C | 99% | 990.9 hPa | 0 mm | 1.34 m/s, 144° | - | - |
| 1777999705 | 15.56° C | 99% | 991.1 hPa | 0 mm | 0.45 m/s, 56° | - | - |
| 1777998475 | 15° C | 99% | 991 hPa | 0 mm | 0.45 m/s, 184° | - | - |
| 1777997275 | 15° C | 99% | 991.1 hPa | 0 mm | 1.34 m/s, 207° | - | - |
| 1777996045 | 15° C | 99% | 990.9 hPa | 0 mm | 0.45 m/s, 143° | - | - |
| 1777994845 | 14.44° C | 99% | 991.3 hPa | 0 mm | 0.45 m/s, 0° | - | - |
| 1777993645 | 14.44° C | 99% | 991.7 hPa | 0 mm | 0.45 m/s, 45° | - | - |
| 1777992445 | 14.44° C | 98% | 991.7 hPa | 0 mm | 0.89 m/s, 159° | - | - |
| 1777991215 | 15° C | 93% | 991.8 hPa | 0 mm | 0.45 m/s, 190° | - | - |
| 1777989985 | 16.67° C | 82% | 991.5 hPa | 0 mm | 0.89 m/s, 226° | - | - |
| 1777988788 | 16.67° C | 80% | 991 hPa | 0 mm | 0.89 m/s, 230° | - | - |
| 1777987585 | 16.67° C | 79% | 991 hPa | 0 mm | 0.89 m/s, 208° | - | - |
| 1777986355 | 16.67° C | 78% | 990.9 hPa | 0 mm | 0.89 m/s, 203° | - | - |
| 1777985155 | 16.11° C | 78% | 990.7 hPa | 0 mm | 0.45 m/s, 138° | - | - |
| 1777983955 | 16.11° C | 77% | 990.5 hPa | 0 mm | 0.89 m/s, 202° | - | - |
| 1777982755 | 16.11° C | 78% | 990.4 hPa | 0 mm | 0.45 m/s, 218° | - | - |
* Rain latest hour (hover to see other rain measurements)
** Current wind speed in m/s (hover to see current wind gust speed)